Cerro, NM

4:13 PM MDT on June 26, 2017 (GMT -0600)
Taos Pines Ranch #10 (upper road) | | Change Station
Active Advisory: Severe Thunderstorm Warning

Elev 9259 ft 36.43 °N, 105.33 °W | Updated 7 days ago

Partly Cloudy
Partly Cloudy
60.6 °F
Feels Like 60.6 °F
N
-
Wind Variable Wind from North
Gusts 2.0 mph

Today
High -- | Low -- °F
--% Chance of Precip.
Yesterday
High -- | Low -- °F
Precip. -- in
Pressure 30.29 in
Visibility 10.0 miles
Clouds Clear
Dew Point 48 °F
Humidity 62%
Rainfall 0.04 in
Snow Depth Not available.
5:45 AM 8:25 PM
Waxing Crescent, 11% visible
METAR KSKX 262155Z AUTO 30006KT 10SM CLR 26/M04 A3029 RMK AO1 LTG DSNT NE
Pressure 30.29 in
Visibility 10.0 miles
Clouds Clear
Dew Point 48 °F
Humidity 62%
Rainfall 0.04 in
Snow Depth Not available.
5:45 AM 8:25 PM
Waxing Crescent, 11% visible
METAR KSKX 262155Z AUTO 30006KT 10SM CLR 26/M04 A3029 RMK AO1 LTG DSNT NE

Get Your Daily Forecast Email!

Thanks for signing up!

Be on the lookout for a verification email in your inbox.

You'll start receiving severe weather alerts in your inbox..

×

10-Day Weather Forecast

Almanac

Astronomy

Jun. 26, 2017 Rise Set
Actual Time
Civil Twilight
Nautical Twilight
Astronomical Twilight
Moon
Length of Visible Light
Length of Day
Tomorrow will be .
, % of the Moon is Illuminated

Today's Extremes

State Highs State Lows

Community

WunderPhotos

Category 6

Welcome to Category 6. This is the collective home for Weather Underground's featured writeups by Dr. Jeff Masters (right), Bob Henson (left), Chris Burt, and other regular contributors.

Nearby

Air Quality

  Air Quality AQ Index Pollutant
Not available.

Snow Depth

Station Depth Elevation

Earthquake Activity

City Distance Mag. Time & Date
Minimum magnitude displayed is 2.5.

Coastal Water Temperatures

Place Temperature

Stations

Nearby Weather Stations

Station Location Temp. Windchill Dew Point Humidity Wind Precip. Elev Updated Type
                   

Watches & Warnings

Severe Thunderstorm Warning
Issued: 4:11 PM MDT Jun. 26, 2017 – National Weather Service

... The Severe Thunderstorm Warning for west central San Miguel and
east central Santa Fe counties is cancelled...

the storm which prompted the warning has weakened below severe
limits, and no longer pose an immediate threat to life or property.
Therefore the warning has been cancelled. However small hail, gusty
winds and heavy rain are still possible with this thunderstorm.

Lat... Lon 3555 10580 3552 10568 3534 10566 3542 10592
time... Mot... loc 2210z 008deg 14kt 3537 10578


Guyer